sensor_id;sensor_type;location;lat;lon;timestamp;P1;durP1;ratioP1;P2;durP2;ratioP2
29202;SDS011;16245;51.170;4.884;2023-02-01T00:01:53;24.15;;;8.80;;
29202;SDS011;16245;51.170;4.884;2023-02-01T00:04:19;22.38;;;9.10;;
29202;SDS011;16245;51.170;4.884;2023-02-01T00:06:45;26.13;;;9.45;;
29202;SDS011;16245;51.170;4.884;2023-02-01T00:09:10;25.85;;;8.30;;
29202;SDS011;16245;51.170;4.884;2023-02-01T00:11:36;22.17;;;7.55;;
29202;SDS011;16245;51.170;4.884;2023-02-01T00:14:02;30.98;;;9.27;;
29202;SDS011;16245;51.170;4.884;2023-02-01T00:16:28;25.33;;;8.75;;
29202;SDS011;16245;51.170;4.884;2023-02-01T00:19:01;26.60;;;8.05;;
29202;SDS011;16245;51.170;4.884;2023-02-01T00:21:31;27.73;;;8.90;;
29202;SDS011;16245;51.170;4.884;2023-02-01T00:23:57;28.98;;;9.10;;
29202;SDS011;16245;51.170;4.884;2023-02-01T00:26:33;20.48;;;8.02;;
29202;SDS011;16245;51.170;4.884;2023-02-01T00:29:02;24.77;;;8.13;;
29202;SDS011;16245;51.170;4.884;2023-02-01T00:31:29;26.65;;;8.15;;
29202;SDS011;16245;51.170;4.884;2023-02-01T00:33:55;31.85;;;7.82;;
29202;SDS011;16245;51.170;4.884;2023-02-01T00:36:21;17.23;;;7.63;;
29202;SDS011;16245;51.170;4.884;2023-02-01T00:38:47;33.50;;;8.13;;
29202;SDS011;16245;51.170;4.884;2023-02-01T00:41:16;27.63;;;8.75;;
29202;SDS011;16245;51.170;4.884;2023-02-01T00:43:44;25.35;;;8.10;;
29202;SDS011;16245;51.170;4.884;2023-02-01T00:46:10;25.63;;;8.07;;
29202;SDS011;16245;51.170;4.884;2023-02-01T00:48:39;22.60;;;8.73;;
29202;SDS011;16245;51.170;4.884;2023-02-01T00:51:06;28.63;;;7.93;;
29202;SDS011;16245;51.170;4.884;2023-02-01T00:53:36;25.65;;;8.93;;
29202;SDS011;16245;51.170;4.884;2023-02-01T00:56:02;25.70;;;8.85;;
29202;SDS011;16245;51.170;4.884;2023-02-01T00:58:28;19.30;;;8.35;;
29202;SDS011;16245;51.170;4.884;2023-02-01T01:01:10;25.20;;;9.30;;
29202;SDS011;16245;51.170;4.884;2023-02-01T01:03:41;28.02;;;8.88;;
29202;SDS011;16245;51.170;4.884;2023-02-01T01:06:10;27.95;;;8.38;;
29202;SDS011;16245;51.170;4.884;2023-02-01T01:08:37;25.58;;;8.45;;
29202;SDS011;16245;51.170;4.884;2023-02-01T01:11:14;27.58;;;7.40;;
29202;SDS011;16245;51.170;4.884;2023-02-01T01:13:41;23.92;;;7.38;;
29202;SDS011;16245;51.170;4.884;2023-02-01T01:16:08;27.65;;;7.57;;
29202;SDS011;16245;51.170;4.884;2023-02-01T01:18:35;21.17;;;7.55;;
29202;SDS011;16245;51.170;4.884;2023-02-01T01:21:01;20.40;;;6.88;;
29202;SDS011;16245;51.170;4.884;2023-02-01T01:23:28;29.45;;;7.65;;
29202;SDS011;16245;51.170;4.884;2023-02-01T01:25:54;18.33;;;7.28;;
29202;SDS011;16245;51.170;4.884;2023-02-01T01:28:19;28.30;;;7.70;;
29202;SDS011;16245;51.170;4.884;2023-02-01T01:30:45;26.50;;;7.93;;
29202;SDS011;16245;51.170;4.884;2023-02-01T01:33:11;23.45;;;8.13;;
29202;SDS011;16245;51.170;4.884;2023-02-01T01:35:36;24.35;;;8.18;;
29202;SDS011;16245;51.170;4.884;2023-02-01T01:38:02;26.27;;;7.72;;
29202;SDS011;16245;51.170;4.884;2023-02-01T01:40:28;24.10;;;6.82;;
29202;SDS011;16245;51.170;4.884;2023-02-01T01:42:54;26.20;;;7.35;;
29202;SDS011;16245;51.170;4.884;2023-02-01T01:47:53;20.52;;;6.75;;
29202;SDS011;16245;51.170;4.884;2023-02-01T01:50:33;26.17;;;7.70;;
29202;SDS011;16245;51.170;4.884;2023-02-01T01:53:03;29.10;;;7.93;;
29202;SDS011;16245;51.170;4.884;2023-02-01T01:55:34;29.27;;;8.20;;
29202;SDS011;16245;51.170;4.884;2023-02-01T01:58:06;19.30;;;7.32;;
29202;SDS011;16245;51.170;4.884;2023-02-01T02:00:35;17.20;;;6.10;;
29202;SDS011;16245;51.170;4.884;2023-02-01T02:03:11;24.05;;;7.63;;
29202;SDS011;16245;51.170;4.884;2023-02-01T02:05:43;26.15;;;6.72;;
29202;SDS011;16245;51.170;4.884;2023-02-01T02:08:10;25.63;;;7.50;;
29202;SDS011;16245;51.170;4.884;2023-02-01T02:10:36;24.65;;;7.05;;
29202;SDS011;16245;51.170;4.884;2023-02-01T02:13:21;20.95;;;6.38;;
29202;SDS011;16245;51.170;4.884;2023-02-01T02:16:33;25.45;;;6.75;;
29202;SDS011;16245;51.170;4.884;2023-02-01T02:18:54;18.30;;;6.40;;
29202;SDS011;16245;51.170;4.884;2023-02-01T02:32:55;24.98;;;6.53;;
29202;SDS011;16245;51.170;4.884;2023-02-01T02:41:33;21.98;;;6.38;;
29202;SDS011;16245;51.170;4.884;2023-02-01T02:50:47;26.42;;;6.35;;
29202;SDS011;16245;51.170;4.884;2023-02-01T02:53:42;32.17;;;7.10;;
29202;SDS011;16245;51.170;4.884;2023-02-01T02:56:51;26.58;;;6.50;;
29202;SDS011;16245;51.170;4.884;2023-02-01T02:59:36;23.23;;;6.00;;
29202;SDS011;16245;51.170;4.884;2023-02-01T03:02:23;20.55;;;6.70;;
29202;SDS011;16245;51.170;4.884;2023-02-01T03:05:11;27.63;;;6.03;;
29202;SDS011;16245;51.170;4.884;2023-02-01T03:10:40;24.67;;;6.28;;
29202;SDS011;16245;51.170;4.884;2023-02-01T03:13:13;28.35;;;6.18;;
29202;SDS011;16245;51.170;4.884;2023-02-01T03:15:57;23.55;;;5.75;;
29202;SDS011;16245;51.170;4.884;2023-02-01T03:21:09;20.65;;;6.00;;
29202;SDS011;16245;51.170;4.884;2023-02-01T03:23:40;19.33;;;4.95;;
29202;SDS011;16245;51.170;4.884;2023-02-01T03:26:10;15.75;;;3.97;;
29202;SDS011;16245;51.170;4.884;2023-02-01T03:28:40;25.27;;;5.97;;
29202;SDS011;16245;51.170;4.884;2023-02-01T03:31:09;16.83;;;5.20;;
29202;SDS011;16245;51.170;4.884;2023-02-01T03:33:35;26.08;;;6.18;;
29202;SDS011;16245;51.170;4.884;2023-02-01T03:41:30;26.55;;;5.60;;
29202;SDS011;16245;51.170;4.884;2023-02-01T03:44:24;20.50;;;4.90;;
29202;SDS011;16245;51.170;4.884;2023-02-01T03:46:56;18.95;;;4.35;;
29202;SDS011;16245;51.170;4.884;2023-02-01T03:49:27;21.15;;;4.68;;
29202;SDS011;16245;51.170;4.884;2023-02-01T03:51:58;19.40;;;4.30;;
29202;SDS011;16245;51.170;4.884;2023-02-01T03:54:24;18.98;;;5.10;;
29202;SDS011;16245;51.170;4.884;2023-02-01T03:56:52;23.65;;;5.22;;
29202;SDS011;16245;51.170;4.884;2023-02-01T03:59:21;23.10;;;4.65;;
29202;SDS011;16245;51.170;4.884;2023-02-01T04:01:47;20.98;;;4.63;;
29202;SDS011;16245;51.170;4.884;2023-02-01T04:04:13;19.25;;;4.93;;
29202;SDS011;16245;51.170;4.884;2023-02-01T04:06:50;26.10;;;5.28;;
29202;SDS011;16245;51.170;4.884;2023-02-01T04:09:16;20.73;;;5.07;;
29202;SDS011;16245;51.170;4.884;2023-02-01T04:11:42;22.73;;;4.53;;
29202;SDS011;16245;51.170;4.884;2023-02-01T04:14:08;22.55;;;4.82;;
29202;SDS011;16245;51.170;4.884;2023-02-01T04:16:35;24.88;;;5.80;;
29202;SDS011;16245;51.170;4.884;2023-02-01T04:19:01;22.10;;;4.60;;
29202;SDS011;16245;51.170;4.884;2023-02-01T04:21:27;21.60;;;4.68;;
29202;SDS011;16245;51.170;4.884;2023-02-01T04:23:53;24.00;;;4.72;;
29202;SDS011;16245;51.170;4.884;2023-02-01T04:26:19;16.58;;;4.65;;
29202;SDS011;16245;51.170;4.884;2023-02-01T04:28:46;23.95;;;4.75;;
29202;SDS011;16245;51.170;4.884;2023-02-01T04:31:16;29.33;;;5.65;;
29202;SDS011;16245;51.170;4.884;2023-02-01T04:33:44;25.52;;;4.88;;
29202;SDS011;16245;51.170;4.884;2023-02-01T04:36:09;20.52;;;4.20;;
29202;SDS011;16245;51.170;4.884;2023-02-01T04:38:35;27.13;;;5.05;;
29202;SDS011;16245;51.170;4.884;2023-02-01T04:41:01;19.83;;;4.18;;
29202;SDS011;16245;51.170;4.884;2023-02-01T04:43:27;19.42;;;4.63;;
29202;SDS011;16245;51.170;4.884;2023-02-01T04:45:52;25.10;;;4.05;;
29202;SDS011;16245;51.170;4.884;2023-02-01T04:48:19;21.88;;;4.13;;
29202;SDS011;16245;51.170;4.884;2023-02-01T04:50:46;27.33;;;5.50;;
29202;SDS011;16245;51.170;4.884;2023-02-01T04:53:15;18.67;;;4.00;;
29202;SDS011;16245;51.170;4.884;2023-02-01T04:55:42;23.15;;;3.92;;
29202;SDS011;16245;51.170;4.884;2023-02-01T04:58:08;25.05;;;4.70;;
29202;SDS011;16245;51.170;4.884;2023-02-01T05:00:35;22.45;;;5.22;;
29202;SDS011;16245;51.170;4.884;2023-02-01T05:03:01;23.08;;;5.00;;
29202;SDS011;16245;51.170;4.884;2023-02-01T05:05:27;18.60;;;5.30;;
29202;SDS011;16245;51.170;4.884;2023-02-01T05:07:53;21.08;;;4.90;;
29202;SDS011;16245;51.170;4.884;2023-02-01T05:10:19;20.85;;;5.47;;
29202;SDS011;16245;51.170;4.884;2023-02-01T05:12:46;24.52;;;5.38;;
29202;SDS011;16245;51.170;4.884;2023-02-01T05:15:30;25.33;;;5.22;;
29202;SDS011;16245;51.170;4.884;2023-02-01T05:17:56;18.38;;;4.65;;
29202;SDS011;16245;51.170;4.884;2023-02-01T05:20:22;23.67;;;5.50;;
29202;SDS011;16245;51.170;4.884;2023-02-01T05:22:49;22.30;;;5.22;;
29202;SDS011;16245;51.170;4.884;2023-02-01T05:25:15;23.27;;;4.45;;
29202;SDS011;16245;51.170;4.884;2023-02-01T05:27:40;24.38;;;5.35;;
29202;SDS011;16245;51.170;4.884;2023-02-01T05:30:07;28.05;;;5.28;;
29202;SDS011;16245;51.170;4.884;2023-02-01T05:32:34;21.73;;;5.05;;
29202;SDS011;16245;51.170;4.884;2023-02-01T05:35:00;23.48;;;5.55;;
29202;SDS011;16245;51.170;4.884;2023-02-01T05:37:25;26.55;;;5.55;;
29202;SDS011;16245;51.170;4.884;2023-02-01T05:39:51;26.13;;;5.03;;
29202;SDS011;16245;51.170;4.884;2023-02-01T05:42:17;24.80;;;5.07;;
29202;SDS011;16245;51.170;4.884;2023-02-01T05:44:42;30.58;;;5.97;;
29202;SDS011;16245;51.170;4.884;2023-02-01T05:47:08;29.98;;;6.03;;
29202;SDS011;16245;51.170;4.884;2023-02-01T05:49:34;28.13;;;5.43;;
29202;SDS011;16245;51.170;4.884;2023-02-01T05:52:00;23.67;;;5.20;;
29202;SDS011;16245;51.170;4.884;2023-02-01T05:54:26;30.85;;;6.47;;
29202;SDS011;16245;51.170;4.884;2023-02-01T05:56:52;22.23;;;5.03;;
29202;SDS011;16245;51.170;4.884;2023-02-01T05:59:18;23.83;;;6.88;;
29202;SDS011;16245;51.170;4.884;2023-02-01T06:01:43;20.77;;;4.57;;
29202;SDS011;16245;51.170;4.884;2023-02-01T06:04:09;16.40;;;4.78;;
29202;SDS011;16245;51.170;4.884;2023-02-01T06:06:35;32.03;;;5.00;;
29202;SDS011;16245;51.170;4.884;2023-02-01T06:09:02;25.05;;;6.15;;
29202;SDS011;16245;51.170;4.884;2023-02-01T06:11:28;26.63;;;5.25;;
29202;SDS011;16245;51.170;4.884;2023-02-01T06:13:57;29.77;;;5.25;;
29202;SDS011;16245;51.170;4.884;2023-02-01T06:16:22;20.02;;;4.25;;
29202;SDS011;16245;51.170;4.884;2023-02-01T06:18:48;28.92;;;5.63;;
29202;SDS011;16245;51.170;4.884;2023-02-01T06:21:14;35.28;;;6.10;;
29202;SDS011;16245;51.170;4.884;2023-02-01T06:23:48;26.40;;;5.88;;
29202;SDS011;16245;51.170;4.884;2023-02-01T06:26:15;17.35;;;4.30;;
29202;SDS011;16245;51.170;4.884;2023-02-01T06:28:43;18.45;;;4.82;;
29202;SDS011;16245;51.170;4.884;2023-02-01T06:31:09;32.55;;;4.90;;
29202;SDS011;16245;51.170;4.884;2023-02-01T06:33:35;27.10;;;5.63;;
29202;SDS011;16245;51.170;4.884;2023-02-01T06:36:02;27.15;;;5.40;;
29202;SDS011;16245;51.170;4.884;2023-02-01T06:38:29;21.55;;;6.03;;
29202;SDS011;16245;51.170;4.884;2023-02-01T06:40:56;30.38;;;5.97;;
29202;SDS011;16245;51.170;4.884;2023-02-01T06:43:23;21.92;;;4.45;;
29202;SDS011;16245;51.170;4.884;2023-02-01T06:45:50;20.15;;;4.35;;
29202;SDS011;16245;51.170;4.884;2023-02-01T06:48:16;21.15;;;4.82;;
29202;SDS011;16245;51.170;4.884;2023-02-01T06:50:42;23.42;;;4.72;;
29202;SDS011;16245;51.170;4.884;2023-02-01T06:53:08;25.38;;;5.25;;
29202;SDS011;16245;51.170;4.884;2023-02-01T06:55:34;21.77;;;5.18;;
29202;SDS011;16245;51.170;4.884;2023-02-01T06:57:59;23.23;;;4.90;;
29202;SDS011;16245;51.170;4.884;2023-02-01T07:00:27;24.73;;;4.85;;
29202;SDS011;16245;51.170;4.884;2023-02-01T07:02:53;24.65;;;5.40;;
29202;SDS011;16245;51.170;4.884;2023-02-01T07:05:20;20.77;;;6.55;;
29202;SDS011;16245;51.170;4.884;2023-02-01T07:07:45;17.48;;;4.95;;
29202;SDS011;16245;51.170;4.884;2023-02-01T07:10:11;19.17;;;5.05;;
29202;SDS011;16245;51.170;4.884;2023-02-01T07:12:37;26.08;;;5.18;;
29202;SDS011;16245;51.170;4.884;2023-02-01T07:15:03;25.67;;;5.13;;
29202;SDS011;16245;51.170;4.884;2023-02-01T07:17:31;21.70;;;6.00;;
29202;SDS011;16245;51.170;4.884;2023-02-01T07:19:57;21.95;;;5.30;;
29202;SDS011;16245;51.170;4.884;2023-02-01T07:22:24;20.92;;;5.15;;
29202;SDS011;16245;51.170;4.884;2023-02-01T07:24:51;21.95;;;4.35;;
29202;SDS011;16245;51.170;4.884;2023-02-01T07:27:16;21.90;;;5.65;;
29202;SDS011;16245;51.170;4.884;2023-02-01T07:29:42;21.45;;;4.45;;
29202;SDS011;16245;51.170;4.884;2023-02-01T07:32:08;27.67;;;5.50;;
29202;SDS011;16245;51.170;4.884;2023-02-01T07:34:33;19.70;;;4.53;;
29202;SDS011;16245;51.170;4.884;2023-02-01T07:36:59;18.98;;;4.55;;
29202;SDS011;16245;51.170;4.884;2023-02-01T07:39:25;24.58;;;5.60;;
29202;SDS011;16245;51.170;4.884;2023-02-01T07:41:53;25.65;;;5.10;;
29202;SDS011;16245;51.170;4.884;2023-02-01T07:44:19;24.50;;;5.72;;
29202;SDS011;16245;51.170;4.884;2023-02-01T07:46:47;19.13;;;5.05;;
29202;SDS011;16245;51.170;4.884;2023-02-01T07:49:13;23.27;;;5.03;;
29202;SDS011;16245;51.170;4.884;2023-02-01T07:51:39;26.25;;;5.60;;
29202;SDS011;16245;51.170;4.884;2023-02-01T07:54:05;27.30;;;5.82;;
29202;SDS011;16245;51.170;4.884;2023-02-01T07:56:31;30.00;;;4.97;;
29202;SDS011;16245;51.170;4.884;2023-02-01T07:58:56;22.60;;;5.45;;
29202;SDS011;16245;51.170;4.884;2023-02-01T08:01:25;22.00;;;5.30;;
29202;SDS011;16245;51.170;4.884;2023-02-01T08:03:55;20.27;;;4.82;;
29202;SDS011;16245;51.170;4.884;2023-02-01T08:06:23;19.83;;;5.35;;
29202;SDS011;16245;51.170;4.884;2023-02-01T08:08:50;31.63;;;5.82;;
29202;SDS011;16245;51.170;4.884;2023-02-01T08:11:17;21.90;;;5.50;;
29202;SDS011;16245;51.170;4.884;2023-02-01T08:13:43;23.30;;;4.82;;
29202;SDS011;16245;51.170;4.884;2023-02-01T08:16:10;15.55;;;5.00;;
29202;SDS011;16245;51.170;4.884;2023-02-01T08:18:37;27.98;;;6.20;;
29202;SDS011;16245;51.170;4.884;2023-02-01T08:21:07;24.20;;;5.80;;
29202;SDS011;16245;51.170;4.884;2023-02-01T08:23:39;25.65;;;6.15;;
29202;SDS011;16245;51.170;4.884;2023-02-01T08:26:06;29.42;;;5.45;;
29202;SDS011;16245;51.170;4.884;2023-02-01T08:28:43;27.33;;;4.80;;
29202;SDS011;16245;51.170;4.884;2023-02-01T08:31:12;19.48;;;5.40;;
29202;SDS011;16245;51.170;4.884;2023-02-01T08:33:40;22.45;;;7.15;;
29202;SDS011;16245;51.170;4.884;2023-02-01T08:36:07;22.30;;;5.63;;
29202;SDS011;16245;51.170;4.884;2023-02-01T08:38:34;25.20;;;6.75;;
29202;SDS011;16245;51.170;4.884;2023-02-01T08:41:12;22.17;;;5.45;;
29202;SDS011;16245;51.170;4.884;2023-02-01T08:43:40;25.27;;;5.38;;
29202;SDS011;16245;51.170;4.884;2023-02-01T08:46:06;29.67;;;5.32;;
29202;SDS011;16245;51.170;4.884;2023-02-01T08:48:33;25.42;;;5.55;;
29202;SDS011;16245;51.170;4.884;2023-02-01T08:51:18;21.63;;;5.72;;
29202;SDS011;16245;51.170;4.884;2023-02-01T08:53:45;29.92;;;6.25;;
29202;SDS011;16245;51.170;4.884;2023-02-01T08:56:12;21.77;;;5.43;;
29202;SDS011;16245;51.170;4.884;2023-02-01T08:58:39;25.20;;;4.80;;
29202;SDS011;16245;51.170;4.884;2023-02-01T09:01:08;23.77;;;5.32;;
29202;SDS011;16245;51.170;4.884;2023-02-01T09:03:36;25.35;;;5.32;;
29202;SDS011;16245;51.170;4.884;2023-02-01T09:06:02;19.13;;;6.03;;
29202;SDS011;16245;51.170;4.884;2023-02-01T09:08:29;27.13;;;6.18;;
29202;SDS011;16245;51.170;4.884;2023-02-01T09:10:58;22.25;;;4.80;;
29202;SDS011;16245;51.170;4.884;2023-02-01T09:13:25;31.65;;;6.60;;
29202;SDS011;16245;51.170;4.884;2023-02-01T09:15:51;24.58;;;5.75;;
29202;SDS011;16245;51.170;4.884;2023-02-01T09:18:16;22.02;;;4.78;;
29202;SDS011;16245;51.170;4.884;2023-02-01T09:20:42;27.95;;;5.05;;
29202;SDS011;16245;51.170;4.884;2023-02-01T09:23:13;22.75;;;5.43;;
29202;SDS011;16245;51.170;4.884;2023-02-01T09:25:39;20.15;;;5.65;;
29202;SDS011;16245;51.170;4.884;2023-02-01T09:28:05;17.50;;;5.53;;
29202;SDS011;16245;51.170;4.884;2023-02-01T09:30:34;17.40;;;5.13;;
29202;SDS011;16245;51.170;4.884;2023-02-01T09:33:01;20.95;;;5.03;;
29202;SDS011;16245;51.170;4.884;2023-02-01T09:35:27;23.50;;;4.95;;
29202;SDS011;16245;51.170;4.884;2023-02-01T09:37:53;27.48;;;6.18;;
29202;SDS011;16245;51.170;4.884;2023-02-01T09:40:20;21.42;;;4.93;;
29202;SDS011;16245;51.170;4.884;2023-02-01T09:48:35;22.95;;;5.10;;
29202;SDS011;16245;51.170;4.884;2023-02-01T09:51:06;22.63;;;4.82;;
29202;SDS011;16245;51.170;4.884;2023-02-01T09:53:55;19.30;;;4.07;;
29202;SDS011;16245;51.170;4.884;2023-02-01T09:56:27;22.45;;;5.32;;
29202;SDS011;16245;51.170;4.884;2023-02-01T10:01:51;15.43;;;4.93;;
29202;SDS011;16245;51.170;4.884;2023-02-01T10:04:17;27.88;;;5.43;;
29202;SDS011;16245;51.170;4.884;2023-02-01T10:17:52;26.48;;;5.20;;
29202;SDS011;16245;51.170;4.884;2023-02-01T10:20:31;18.33;;;5.60;;
29202;SDS011;16245;51.170;4.884;2023-02-01T10:25:38;18.95;;;5.03;;
29202;SDS011;16245;51.170;4.884;2023-02-01T10:28:18;22.38;;;5.30;;
29202;SDS011;16245;51.170;4.884;2023-02-01T10:30:46;25.17;;;4.82;;
29202;SDS011;16245;51.170;4.884;2023-02-01T10:38:34;18.38;;;4.60;;
29202;SDS011;16245;51.170;4.884;2023-02-01T10:41:04;18.98;;;4.75;;
29202;SDS011;16245;51.170;4.884;2023-02-01T10:43:56;23.73;;;4.97;;
29202;SDS011;16245;51.170;4.884;2023-02-01T10:46:23;21.73;;;5.13;;
29202;SDS011;16245;51.170;4.884;2023-02-01T10:48:51;11.32;;;4.50;;
29202;SDS011;16245;51.170;4.884;2023-02-01T10:54:05;21.02;;;6.15;;
29202;SDS011;16245;51.170;4.884;2023-02-01T10:56:43;21.27;;;4.63;;
29202;SDS011;16245;51.170;4.884;2023-02-01T10:59:17;15.38;;;4.60;;
29202;SDS011;16245;51.170;4.884;2023-02-01T11:01:46;22.60;;;4.57;;
29202;SDS011;16245;51.170;4.884;2023-02-01T11:04:20;22.63;;;4.47;;
29202;SDS011;16245;51.170;4.884;2023-02-01T11:06:53;15.90;;;4.50;;
29202;SDS011;16245;51.170;4.884;2023-02-01T11:09:32;18.77;;;4.53;;
29202;SDS011;16245;51.170;4.884;2023-02-01T11:12:04;23.50;;;4.07;;
29202;SDS011;16245;51.170;4.884;2023-02-01T11:14:45;23.17;;;4.53;;
29202;SDS011;16245;51.170;4.884;2023-02-01T11:19:47;23.27;;;4.88;;
29202;SDS011;16245;51.170;4.884;2023-02-01T11:22:30;20.55;;;4.28;;
29202;SDS011;16245;51.170;4.884;2023-02-01T11:24:56;24.90;;;4.28;;
29202;SDS011;16245;51.170;4.884;2023-02-01T11:27:24;17.63;;;3.60;;
29202;SDS011;16245;51.170;4.884;2023-02-01T11:29:52;15.20;;;3.53;;
29202;SDS011;16245;51.170;4.884;2023-02-01T11:32:21;20.13;;;4.20;;
29202;SDS011;16245;51.170;4.884;2023-02-01T11:34:56;14.95;;;3.80;;
29202;SDS011;16245;51.170;4.884;2023-02-01T11:37:31;13.40;;;2.90;;
29202;SDS011;16245;51.170;4.884;2023-02-01T11:40:03;14.63;;;3.63;;
29202;SDS011;16245;51.170;4.884;2023-02-01T11:42:55;13.85;;;3.17;;
29202;SDS011;16245;51.170;4.884;2023-02-01T11:45:27;12.25;;;2.65;;
29202;SDS011;16245;51.170;4.884;2023-02-01T11:47:55;14.98;;;3.28;;
29202;SDS011;16245;51.170;4.884;2023-02-01T11:53:22;13.02;;;2.90;;
29202;SDS011;16245;51.170;4.884;2023-02-01T11:56:02;14.38;;;3.40;;
29202;SDS011;16245;51.170;4.884;2023-02-01T11:59:08;8.70;;;2.40;;
29202;SDS011;16245;51.170;4.884;2023-02-01T12:02:00;13.45;;;3.13;;
29202;SDS011;16245;51.170;4.884;2023-02-01T12:18:33;12.70;;;3.50;;
29202;SDS011;16245;51.170;4.884;2023-02-01T12:21:06;11.57;;;2.70;;
29202;SDS011;16245;51.170;4.884;2023-02-01T12:26:33;14.35;;;3.95;;
29202;SDS011;16245;51.170;4.884;2023-02-01T12:31:56;16.17;;;2.50;;
29202;SDS011;16245;51.170;4.884;2023-02-01T12:45:35;15.35;;;2.95;;
29202;SDS011;16245;51.170;4.884;2023-02-01T12:50:50;11.55;;;3.70;;
29202;SDS011;16245;51.170;4.884;2023-02-01T12:53:48;14.15;;;2.55;;
29202;SDS011;16245;51.170;4.884;2023-02-01T12:56:52;8.60;;;2.20;;
29202;SDS011;16245;51.170;4.884;2023-02-01T12:59:24;14.02;;;2.72;;
29202;SDS011;16245;51.170;4.884;2023-02-01T13:07:31;11.18;;;3.47;;
29202;SDS011;16245;51.170;4.884;2023-02-01T13:10:16;14.50;;;2.83;;
29202;SDS011;16245;51.170;4.884;2023-02-01T13:12:57;12.98;;;2.80;;
29202;SDS011;16245;51.170;4.884;2023-02-01T13:15:42;15.18;;;3.20;;
29202;SDS011;16245;51.170;4.884;2023-02-01T13:18:21;25.15;;;8.30;;
29202;SDS011;16245;51.170;4.884;2023-02-01T13:21:04;15.57;;;3.05;;
29202;SDS011;16245;51.170;4.884;2023-02-01T13:23:36;15.57;;;3.20;;
29202;SDS011;16245;51.170;4.884;2023-02-01T13:26:05;12.82;;;2.70;;
29202;SDS011;16245;51.170;4.884;2023-02-01T13:41:51;14.85;;;3.00;;
29202;SDS011;16245;51.170;4.884;2023-02-01T13:44:29;14.68;;;2.83;;
29202;SDS011;16245;51.170;4.884;2023-02-01T13:46:57;11.48;;;3.38;;
29202;SDS011;16245;51.170;4.884;2023-02-01T13:49:31;16.73;;;3.47;;
29202;SDS011;16245;51.170;4.884;2023-02-01T13:52:02;16.52;;;3.83;;
29202;SDS011;16245;51.170;4.884;2023-02-01T13:54:30;14.15;;;3.28;;
29202;SDS011;16245;51.170;4.884;2023-02-01T13:57:04;12.27;;;2.97;;
29202;SDS011;16245;51.170;4.884;2023-02-01T14:05:04;17.25;;;4.35;;
29202;SDS011;16245;51.170;4.884;2023-02-01T14:07:33;22.00;;;4.32;;
29202;SDS011;16245;51.170;4.884;2023-02-01T14:10:45;17.45;;;3.30;;
29202;SDS011;16245;51.170;4.884;2023-02-01T14:23:44;17.35;;;3.90;;
29202;SDS011;16245;51.170;4.884;2023-02-01T14:26:21;17.45;;;3.72;;
29202;SDS011;16245;51.170;4.884;2023-02-01T14:37:06;14.48;;;4.38;;
29202;SDS011;16245;51.170;4.884;2023-02-01T14:39:37;16.92;;;4.03;;
29202;SDS011;16245;51.170;4.884;2023-02-01T14:42:29;17.13;;;3.72;;
29202;SDS011;16245;51.170;4.884;2023-02-01T14:55:39;13.48;;;3.35;;
29202;SDS011;16245;51.170;4.884;2023-02-01T14:58:35;13.57;;;3.13;;
29202;SDS011;16245;51.170;4.884;2023-02-01T15:01:15;21.25;;;3.80;;
29202;SDS011;16245;51.170;4.884;2023-02-01T15:06:32;14.35;;;3.25;;
29202;SDS011;16245;51.170;4.884;2023-02-01T15:09:07;15.23;;;3.90;;
29202;SDS011;16245;51.170;4.884;2023-02-01T15:11:56;19.98;;;5.45;;
29202;SDS011;16245;51.170;4.884;2023-02-01T15:14:29;14.30;;;3.47;;
29202;SDS011;16245;51.170;4.884;2023-02-01T15:17:17;15.15;;;3.53;;
29202;SDS011;16245;51.170;4.884;2023-02-01T15:20:29;23.02;;;3.10;;
29202;SDS011;16245;51.170;4.884;2023-02-01T15:22:40;11.75;;;3.55;;
29202;SDS011;16245;51.170;4.884;2023-02-01T15:28:05;16.25;;;3.50;;
29202;SDS011;16245;51.170;4.884;2023-02-01T15:30:35;17.38;;;3.45;;
29202;SDS011;16245;51.170;4.884;2023-02-01T15:33:13;11.18;;;3.03;;
29202;SDS011;16245;51.170;4.884;2023-02-01T15:40:53;15.68;;;3.70;;
29202;SDS011;16245;51.170;4.884;2023-02-01T15:43:27;19.80;;;4.07;;
29202;SDS011;16245;51.170;4.884;2023-02-01T15:45:56;15.02;;;3.17;;
29202;SDS011;16245;51.170;4.884;2023-02-01T15:48:24;15.65;;;3.40;;
29202;SDS011;16245;51.170;4.884;2023-02-01T15:50:52;18.45;;;3.85;;
29202;SDS011;16245;51.170;4.884;2023-02-01T15:53:21;18.40;;;3.83;;
29202;SDS011;16245;51.170;4.884;2023-02-01T15:55:53;24.40;;;4.32;;
29202;SDS011;16245;51.170;4.884;2023-02-01T15:58:22;15.85;;;3.85;;
29202;SDS011;16245;51.170;4.884;2023-02-01T16:00:53;23.55;;;4.43;;
29202;SDS011;16245;51.170;4.884;2023-02-01T16:03:33;14.77;;;3.40;;
29202;SDS011;16245;51.170;4.884;2023-02-01T16:06:03;18.17;;;4.53;;
29202;SDS011;16245;51.170;4.884;2023-02-01T16:08:30;20.52;;;4.80;;
29202;SDS011;16245;51.170;4.884;2023-02-01T16:11:00;21.85;;;4.10;;
29202;SDS011;16245;51.170;4.884;2023-02-01T16:13:32;16.00;;;3.65;;
29202;SDS011;16245;51.170;4.884;2023-02-01T16:15:58;20.35;;;4.93;;
29202;SDS011;16245;51.170;4.884;2023-02-01T16:18:23;20.25;;;4.47;;
29202;SDS011;16245;51.170;4.884;2023-02-01T16:20:49;18.70;;;3.65;;
29202;SDS011;16245;51.170;4.884;2023-02-01T16:23:15;18.08;;;4.05;;
29202;SDS011;16245;51.170;4.884;2023-02-01T16:25:40;19.02;;;3.42;;
29202;SDS011;16245;51.170;4.884;2023-02-01T16:28:06;20.05;;;3.83;;
29202;SDS011;16245;51.170;4.884;2023-02-01T16:30:33;21.13;;;3.78;;
29202;SDS011;16245;51.170;4.884;2023-02-01T16:32:59;13.65;;;3.42;;
29202;SDS011;16245;51.170;4.884;2023-02-01T16:35:33;18.42;;;3.95;;
29202;SDS011;16245;51.170;4.884;2023-02-01T16:38:21;15.32;;;3.33;;
29202;SDS011;16245;51.170;4.884;2023-02-01T16:40:47;15.48;;;4.28;;
29202;SDS011;16245;51.170;4.884;2023-02-01T16:43:15;14.00;;;3.95;;
29202;SDS011;16245;51.170;4.884;2023-02-01T16:45:49;18.73;;;4.00;;
29202;SDS011;16245;51.170;4.884;2023-02-01T16:48:26;18.70;;;4.63;;
29202;SDS011;16245;51.170;4.884;2023-02-01T16:50:58;22.00;;;3.88;;
29202;SDS011;16245;51.170;4.884;2023-02-01T16:53:28;20.45;;;4.32;;
29202;SDS011;16245;51.170;4.884;2023-02-01T16:55:55;23.08;;;5.15;;
29202;SDS011;16245;51.170;4.884;2023-02-01T16:58:22;20.52;;;4.55;;
29202;SDS011;16245;51.170;4.884;2023-02-01T17:00:49;17.73;;;4.45;;
29202;SDS011;16245;51.170;4.884;2023-02-01T17:03:18;17.60;;;4.03;;
29202;SDS011;16245;51.170;4.884;2023-02-01T17:05:45;17.08;;;4.85;;
29202;SDS011;16245;51.170;4.884;2023-02-01T17:08:15;18.40;;;4.18;;
29202;SDS011;16245;51.170;4.884;2023-02-01T17:10:57;26.65;;;5.35;;
29202;SDS011;16245;51.170;4.884;2023-02-01T17:13:23;15.23;;;3.55;;
29202;SDS011;16245;51.170;4.884;2023-02-01T17:15:58;17.83;;;3.65;;
29202;SDS011;16245;51.170;4.884;2023-02-01T17:18:35;24.77;;;5.07;;
29202;SDS011;16245;51.170;4.884;2023-02-01T17:21:01;18.60;;;4.53;;
29202;SDS011;16245;51.170;4.884;2023-02-01T17:23:29;19.10;;;3.92;;
29202;SDS011;16245;51.170;4.884;2023-02-01T17:25:56;22.00;;;4.35;;
29202;SDS011;16245;51.170;4.884;2023-02-01T17:28:22;23.55;;;5.05;;
29202;SDS011;16245;51.170;4.884;2023-02-01T17:30:48;21.55;;;4.45;;
29202;SDS011;16245;51.170;4.884;2023-02-01T17:35:50;16.60;;;4.63;;
29202;SDS011;16245;51.170;4.884;2023-02-01T17:38:18;20.00;;;4.47;;
29202;SDS011;16245;51.170;4.884;2023-02-01T17:40:44;19.63;;;5.50;;
29202;SDS011;16245;51.170;4.884;2023-02-01T17:43:13;20.15;;;4.32;;
29202;SDS011;16245;51.170;4.884;2023-02-01T17:48:26;21.02;;;4.75;;
29202;SDS011;16245;51.170;4.884;2023-02-01T17:50:52;19.05;;;4.20;;
29202;SDS011;16245;51.170;4.884;2023-02-01T17:53:23;16.10;;;4.32;;